Airport View

Enter AWOS ICAO identifier for current METAR.

ex. KFNL

KZPH 170915Z AUTO 36005KT 10SM OVC008 10/08 A2995 RMK A02 T00960081

17 Nov 2019 09:38

Frequency: 118.975

Phone: 813-780-0031

Other Area AWOS: KPCM - KVDF - KLAL - KBKV

TAF KLAL 170534Z 1706/1806 36007KT P6SM OVC009 FM171300 36005KT P6SM SCT015 TEMPO 1713/1716 BKN015 FM171600 35007KT P6SM SCT030 SCT250 FM172300 35004KT P6SM SCT250 AMD NOT SKED TIL 171100